Time;durP1;ratioP1;P1;durP2;ratioP2;P2;SDS_P1;SDS_P2;PMS_P1;PMS_P2;Temp;Humidity;BMP_temperature;BMP_pressure;BME280_temperature;BME280_humidity;BME280_pressure;Samples;Min_cycle;Max_cycle;Signal;HPM_P1;HPM_P2
2023/04/29 00:00:59;;;;;;;;;4.00;4.00;;;;;17.33;51.37;101207.84;5040843;28;45385;-60
2023/04/29 00:03:27;;;;;;;;;5.75;3.75;;;;;17.30;51.07;101202.63;5057927;28;47211;-61
2023/04/29 00:05:53;;;;;;;;;5.00;4.75;;;;;17.28;51.17;101198.31;5061171;28;47016;-60
2023/04/29 00:08:20;;;;;;;;;1.00;1.00;;;;;17.25;51.34;101195.78;5060997;28;45245;-60
2023/04/29 00:10:45;;;;;;;;;4.00;3.50;;;;;17.25;51.21;101198.44;5060021;28;45280;-60
2023/04/29 00:13:11;;;;;;;;;4.00;4.00;;;;;17.23;51.38;101190.50;5061105;28;45291;-60
2023/04/29 00:15:37;;;;;;;;;4.25;4.25;;;;;17.21;51.42;101193.19;5061145;28;45277;-60
2023/04/29 00:18:03;;;;;;;;;5.00;5.00;;;;;17.20;51.75;101191.47;5061037;28;45270;-60
2023/04/29 00:20:28;;;;;;;;;4.00;4.00;;;;;17.16;51.56;101187.19;5061046;28;45204;-60
2023/04/29 00:22:53;;;;;;;;;7.75;4.00;;;;;17.15;51.44;101182.78;5042652;28;57620;-60
2023/04/29 00:25:19;;;;;;;;;4.75;4.75;;;;;17.12;51.84;101179.38;5060919;28;45400;-61
2023/04/29 00:27:44;;;;;;;;;5.75;5.50;;;;;17.11;51.49;101182.97;5042841;28;45517;-60
2023/04/29 00:30:10;;;;;;;;;4.00;4.00;;;;;17.09;51.52;101190.97;5061148;28;45177;-60
2023/04/29 00:32:35;;;;;;;;;4.00;3.00;;;;;17.05;51.51;101184.03;5059656;28;45325;-60
2023/04/29 00:35:01;;;;;;;;;4.25;4.00;;;;;17.02;51.85;101181.50;5060943;28;46195;-60
2023/04/29 00:37:26;;;;;;;;;5.00;3.00;;;;;16.99;51.62;101179.81;5060446;28;45399;-60
2023/04/29 00:39:51;;;;;;;;;5.00;4.25;;;;;17.00;51.77;101175.38;5060899;28;45410;-60
2023/04/29 00:42:17;;;;;;;;;3.75;3.50;;;;;16.97;51.81;101179.00;5060715;28;45399;-61
2023/04/29 00:44:42;;;;;;;;;4.00;4.00;;;;;16.93;51.83;101171.19;5060848;28;45357;-60
2023/04/29 00:47:10;;;;;;;;;4.00;4.00;;;;;16.92;51.69;101174.75;5060303;28;52975;-60
2023/04/29 00:49:37;;;;;;;;;4.00;4.00;;;;;16.89;51.54;101176.56;5042864;28;45292;-60
2023/04/29 00:52:03;;;;;;;;;4.00;4.00;;;;;16.88;51.68;101176.63;5042237;28;46336;-60
2023/04/29 00:54:28;;;;;;;;;3.00;3.00;;;;;16.86;51.96;101174.00;5042332;28;46303;-60
2023/04/29 00:56:54;;;;;;;;;3.75;3.00;;;;;16.84;51.91;101177.63;5060285;28;45257;-61
2023/04/29 00:59:21;;;;;;;;;6.75;4.75;;;;;16.84;51.96;101174.97;5060722;28;45189;-60
2023/04/29 01:01:47;;;;;;;;;5.75;5.75;;;;;16.82;52.06;101180.34;5058886;28;45563;-60
2023/04/29 01:04:12;;;;;;;;;3.25;3.25;;;;;16.80;51.94;101176.00;5060395;28;47200;-60
2023/04/29 01:06:48;;;;;;;;;3.50;3.50;;;;;16.79;51.94;101182.22;5059995;28;45384;-61
2023/04/29 01:09:32;;;;;;;;;5.75;4.75;;;;;16.76;51.94;101188.50;5059604;28;45415;-60
2023/04/29 01:12:07;;;;;;;;;4.50;4.50;;;;;16.74;51.89;101185.03;5042388;28;45328;-60
2023/04/29 01:14:34;;;;;;;;;5.00;5.00;;;;;16.73;52.01;101178.00;5060154;28;45558;-60
2023/04/29 01:17:05;;;;;;;;;3.50;3.50;;;;;16.71;51.90;101174.53;5060319;28;45383;-61
2023/04/29 01:19:53;;;;;;;;;5.00;5.00;;;;;16.67;51.75;101171.09;5060362;28;45462;-60
2023/04/29 01:22:20;;;;;;;;;5.00;5.00;;;;;16.67;51.94;101178.19;5059871;28;45384;-60
2023/04/29 01:24:47;;;;;;;;;6.50;5.50;;;;;16.65;51.93;101177.38;5059970;28;45348;-60
2023/04/29 01:27:22;;;;;;;;;5.75;5.00;;;;;16.64;52.09;101175.63;5060070;28;45220;-60
2023/04/29 01:29:56;;;;;;;;;5.25;5.00;;;;;16.62;52.07;101180.13;5060406;28;45232;-60
2023/04/29 01:33:11;;;;;;;;;5.00;4.25;;;;;16.59;52.26;101191.72;5041847;28;45434;-60
2023/04/29 01:35:51;;;;;;;;;5.00;4.75;;;;;16.58;52.42;101185.53;5035280;28;46118;-61
2023/04/29 01:38:38;;;;;;;;;5.75;5.75;;;;;16.55;52.10;101193.59;5058416;28;45416;-60
2023/04/29 01:41:14;;;;;;;;;5.00;5.00;;;;;16.53;52.26;101179.50;5042052;28;45370;-61
2023/04/29 01:43:39;;;;;;;;;4.00;4.00;;;;;16.52;52.30;101175.13;5059730;28;45412;-60
2023/04/29 01:46:07;;;;;;;;;7.25;6.50;;;;;16.51;52.08;101178.69;5059880;28;46139;-60
2023/04/29 01:48:33;;;;;;;;;10.25;5.75;;;;;16.48;52.08;101165.53;5059626;28;45246;-60
2023/04/29 01:50:58;;;;;;;;;3.00;3.00;;;;;16.45;52.57;101160.31;5059932;28;45284;-60
2023/04/29 01:53:24;;;;;;;;;7.00;6.00;;;;;16.44;52.22;101161.25;5059677;28;45273;-60
2023/04/29 01:55:49;;;;;;;;;5.75;5.75;;;;;16.47;52.15;101165.59;5041349;28;59347;-60
2023/04/29 01:58:14;;;;;;;;;5.00;4.75;;;;;16.45;52.23;101170.06;5045185;28;45369;-60
2023/04/29 02:00:40;;;;;;;;;4.75;4.75;;;;;16.44;52.29;101170.97;5039403;28;45422;-60
2023/04/29 02:03:05;;;;;;;;;6.50;5.75;;;;;16.40;52.36;101162.25;5058106;28;45668;-60
2023/04/29 02:05:32;;;;;;;;;5.25;5.25;;;;;16.40;52.57;101167.53;5059465;28;51027;-60
2023/04/29 02:07:59;;;;;;;;;4.25;4.25;;;;;16.37;52.47;101162.34;5057776;28;45444;-60
2023/04/29 02:10:25;;;;;;;;;4.50;4.50;;;;;16.34;52.50;101160.66;5059715;28;45322;-60
2023/04/29 02:12:50;;;;;;;;;6.00;6.00;;;;;16.34;52.29;101159.78;5059381;28;45593;-60
2023/04/29 02:15:16;;;;;;;;;8.00;7.25;;;;;16.31;52.54;101168.69;5059626;28;45294;-61
2023/04/29 02:17:42;;;;;;;;;4.50;4.50;;;;;16.30;52.41;101159.03;5041480;28;45930;-61
2023/04/29 02:20:09;;;;;;;;;4.50;4.50;;;;;16.26;52.53;101157.38;5061207;28;45297;-61
2023/04/29 02:22:34;;;;;;;;;10.50;7.50;;;;;16.28;52.71;101173.25;5062851;28;45614;-61
2023/04/29 02:24:59;;;;;;;;;7.75;6.00;;;;;16.26;52.51;101175.94;5063011;28;46506;-60
2023/04/29 02:27:25;;;;;;;;;6.00;5.00;;;;;16.23;53.05;101179.56;5044777;28;45352;-60
2023/04/29 02:29:50;;;;;;;;;7.00;6.25;;;;;16.22;52.57;101180.47;5061893;28;45224;-60
2023/04/29 02:32:18;;;;;;;;;5.00;4.75;;;;;16.20;52.67;101184.06;5062584;28;49247;-60
2023/04/29 02:34:44;;;;;;;;;3.00;2.75;;;;;16.13;52.37;101182.56;5062974;28;45442;-61
2023/04/29 02:37:10;;;;;;;;;7.00;6.00;;;;;16.15;52.79;101178.94;5062185;28;45326;-60
2023/04/29 02:39:35;;;;;;;;;8.50;7.25;;;;;16.12;52.65;101175.50;5062948;28;45307;-61
2023/04/29 02:42:00;;;;;;;;;5.50;5.00;;;;;16.10;52.80;101175.56;5062337;28;53444;-61
2023/04/29 02:44:26;;;;;;;;;6.25;6.25;;;;;16.09;52.64;101181.78;5062841;28;46093;-61
2023/04/29 02:46:51;;;;;;;;;6.25;5.50;;;;;16.06;53.00;101177.44;5062766;28;45305;-61
2023/04/29 02:49:16;;;;;;;;;6.75;6.75;;;;;16.06;52.72;101176.53;5062265;28;53686;-61
2023/04/29 02:51:41;;;;;;;;;7.25;6.00;;;;;16.02;52.89;101181.06;5044277;28;45347;-61
2023/04/29 02:54:07;;;;;;;;;7.75;6.25;;;;;16.04;52.90;101181.03;5062230;28;49061;-61
2023/04/29 02:56:32;;;;;;;;;6.50;6.50;;;;;16.02;52.79;101182.84;5062481;28;45217;-60
2023/04/29 02:58:57;;;;;;;;;6.00;6.00;;;;;15.99;52.82;101180.31;5062399;28;45211;-60
2023/04/29 03:01:23;;;;;;;;;6.00;6.00;;;;;15.99;52.84;101182.97;5062403;28;45277;-60
2023/04/29 03:03:48;;;;;;;;;11.25;8.75;;;;;15.97;52.68;101183.00;5062394;28;46145;-61
2023/04/29 03:06:14;;;;;;;;;7.50;6.50;;;;;15.97;53.03;101188.28;5062111;28;45293;-60
2023/04/29 03:08:40;;;;;;;;;8.00;7.50;;;;;15.93;52.88;101174.25;5062572;28;45578;-61
2023/04/29 03:11:05;;;;;;;;;6.00;6.00;;;;;15.92;52.74;101177.84;5062145;28;45249;-61
2023/04/29 03:13:31;;;;;;;;;6.50;6.00;;;;;15.90;52.84;101184.97;5062232;28;45167;-60
2023/04/29 03:15:58;;;;;;;;;8.25;8.25;;;;;15.89;52.94;101185.00;5062573;28;45589;-61
2023/04/29 03:18:23;;;;;;;;;7.00;6.75;;;;;15.88;53.02;101188.56;5062297;28;45321;-61
2023/04/29 03:20:49;;;;;;;;;10.75;10.75;;;;;15.87;53.21;101184.19;5061605;28;45470;-61
2023/04/29 03:23:14;;;;;;;;;11.00;9.75;;;;;15.85;52.88;101188.69;5061510;28;60991;-61
2023/04/29 03:25:40;;;;;;;;;6.50;6.00;;;;;15.82;53.09;101196.69;5061974;28;45403;-61
2023/04/29 03:28:05;;;;;;;;;9.25;7.75;;;;;15.80;52.85;101198.47;5043966;28;45317;-61
2023/04/29 03:30:31;;;;;;;;;9.25;8.00;;;;;15.80;53.10;101202.00;5061905;28;45242;-60
2023/04/29 03:32:56;;;;;;;;;7.75;6.25;;;;;15.77;52.84;101204.72;5061265;28;45271;-61
2023/04/29 03:35:21;;;;;;;;;12.00;12.00;;;;;15.76;53.28;101203.03;5061764;28;45219;-61
2023/04/29 03:37:47;;;;;;;;;12.00;9.00;;;;;15.70;53.18;101208.50;5061700;28;45204;-60
2023/04/29 03:40:12;;;;;;;;;12.75;12.25;;;;;15.69;52.76;101201.44;5061602;28;45510;-60
2023/04/29 03:42:38;;;;;;;;;11.75;10.00;;;;;15.68;52.91;101205.00;5061464;28;45321;-61
2023/04/29 03:45:04;;;;;;;;;19.25;16.25;;;;;15.66;53.11;101206.81;5061753;28;45210;-60
2023/04/29 03:47:30;;;;;;;;;14.25;10.75;;;;;15.63;53.09;101206.91;5061678;28;45298;-61
2023/04/29 03:49:55;;;;;;;;;12.25;10.00;;;;;15.57;53.06;101198.22;5061347;28;45479;-60
2023/04/29 03:52:20;;;;;;;;;16.75;15.00;;;;;15.56;53.68;101193.00;5061615;28;45359;-60
2023/04/29 03:54:46;;;;;;;;;20.25;15.25;;;;;15.54;53.14;101198.31;5061416;28;45320;-61
2023/04/29 03:57:11;;;;;;;;;19.25;15.25;;;;;15.53;53.17;101204.50;5061753;28;45398;-60
2023/04/29 03:59:36;;;;;;;;;20.25;17.25;;;;;15.50;53.35;101204.59;5048858;28;45540;-60
2023/04/29 04:02:02;;;;;;;;;19.75;16.50;;;;;15.48;53.04;101208.22;5056212;28;55109;-60
2023/04/29 04:04:27;;;;;;;;;15.50;15.00;;;;;15.46;53.37;101207.38;5061421;28;45284;-60
2023/04/29 04:06:52;;;;;;;;;15.00;14.75;;;;;15.43;53.48;101218.91;5061282;28;45381;-60
2023/04/29 04:09:18;;;;;;;;;17.75;16.00;;;;;15.43;53.44;101218.91;5061342;28;45254;-60
2023/04/29 04:11:44;;;;;;;;;17.50;15.75;;;;;15.40;53.52;101226.97;5061089;28;45355;-60
2023/04/29 04:14:09;;;;;;;;;20.75;17.50;;;;;15.38;53.50;101226.13;5061244;28;45403;-60
2023/04/29 04:16:35;;;;;;;;;16.75;14.75;;;;;15.31;53.52;101212.19;5061041;28;45284;-60
2023/04/29 04:19:00;;;;;;;;;19.25;17.25;;;;;15.33;53.42;101228.03;5061227;28;45339;-61
2023/04/29 04:21:26;;;;;;;;;16.25;16.00;;;;;15.31;53.51;101227.19;5060614;28;45319;-61
2023/04/29 04:23:52;;;;;;;;;17.75;16.00;;;;;15.28;53.60;101228.13;5059817;28;45237;-60
2023/04/29 04:26:17;;;;;;;;;19.75;18.25;;;;;15.28;53.54;101230.78;5060881;28;45396;-60
2023/04/29 04:28:42;;;;;;;;;18.25;18.25;;;;;15.27;53.50;101232.56;5061142;28;45411;-60
2023/04/29 04:31:08;;;;;;;;;19.75;19.50;;;;;15.26;53.85;101229.97;5042707;28;47141;-60
2023/04/29 04:33:33;;;;;;;;;21.75;19.25;;;;;15.24;53.61;101240.59;5060734;28;49471;-60
2023/04/29 04:35:58;;;;;;;;;17.00;16.00;;;;;15.24;53.37;101237.97;5060677;28;45251;-60
2023/04/29 04:38:25;;;;;;;;;18.00;17.75;;;;;15.23;53.61;101245.91;5060510;28;45537;-60
2023/04/29 04:40:51;;;;;;;;;19.50;18.00;;;;;15.22;53.71;101250.34;5060404;28;47362;-60
2023/04/29 04:43:16;;;;;;;;;21.50;20.75;;;;;15.19;53.89;101254.84;5042359;28;47698;-60
2023/04/29 04:45:42;;;;;;;;;23.50;18.00;;;;;15.18;53.75;101254.00;5060470;28;46427;-61
2023/04/29 04:48:07;;;;;;;;;17.75;17.00;;;;;15.12;54.10;101246.22;5060574;28;48041;-60
2023/04/29 04:50:33;;;;;;;;;20.25;20.25;;;;;15.15;53.60;101259.34;5060195;28;45737;-60
2023/04/29 04:52:58;;;;;;;;;18.25;18.25;;;;;15.11;53.89;101255.06;5060683;28;45302;-60
2023/04/29 04:55:23;;;;;;;;;18.50;17.00;;;;;15.10;53.97;101253.31;5060441;28;45498;-60
2023/04/29 04:57:49;;;;;;;;;19.75;19.75;;;;;15.11;54.09;101268.28;5060574;28;45442;-60
2023/04/29 05:00:15;;;;;;;;;18.25;18.00;;;;;15.12;53.65;101272.69;5056848;28;46318;-60
2023/04/29 05:02:40;;;;;;;;;25.75;21.25;;;;;15.09;53.60;101270.97;5051116;28;45347;-60
2023/04/29 05:05:06;;;;;;;;;19.75;18.00;;;;;15.10;53.65;101279.78;5060238;28;45329;-60
2023/04/29 05:07:34;;;;;;;;;25.25;21.75;;;;;15.08;53.77;101281.56;5060492;28;45384;-60
2023/04/29 05:10:00;;;;;;;;;18.00;16.75;;;;;15.05;53.84;101290.47;5059987;28;45235;-61
2023/04/29 05:12:34;;;;;;;;;18.25;15.75;;;;;15.08;53.94;101292.16;5060332;28;45287;-60
2023/04/29 05:14:59;;;;;;;;;18.00;17.25;;;;;15.07;54.33;101299.25;5060308;28;45158;-60
2023/04/29 05:17:25;;;;;;;;;16.75;15.50;;;;;15.05;54.06;101292.25;5060274;28;45278;-60
2023/04/29 05:19:50;;;;;;;;;24.25;20.50;;;;;15.05;54.02;101295.75;5059789;28;45445;-60
2023/04/29 05:22:15;;;;;;;;;16.75;16.00;;;;;15.03;54.27;101304.66;5059761;28;56798;-60
2023/04/29 05:24:41;;;;;;;;;18.25;17.25;;;;;15.01;54.49;101301.19;5059711;28;49428;-60
2023/04/29 05:27:06;;;;;;;;;18.75;17.50;;;;;14.97;53.94;101299.50;5059831;28;52639;-60
2023/04/29 05:29:31;;;;;;;;;19.50;16.50;;;;;14.99;54.07;101316.22;5059791;28;46803;-61
2023/04/29 05:31:57;;;;;;;;;20.75;17.75;;;;;14.96;54.55;101309.22;5060169;28;45367;-60
2023/04/29 05:34:22;;;;;;;;;22.00;21.00;;;;;14.95;54.04;101326.00;5060062;28;46463;-60
2023/04/29 05:36:47;;;;;;;;;20.75;19.25;;;;;14.95;54.41;101332.19;5059606;28;45300;-61
2023/04/29 05:39:13;;;;;;;;;24.25;20.25;;;;;14.94;53.89;101326.91;5041518;28;47079;-60
2023/04/29 05:41:38;;;;;;;;;17.75;17.25;;;;;14.94;53.97;101325.16;5041916;28;45409;-61
2023/04/29 05:44:04;;;;;;;;;19.75;18.25;;;;;14.94;54.16;101329.53;5059980;28;45345;-60
2023/04/29 05:46:29;;;;;;;;;30.50;29.50;;;;;14.84;54.13;101320.97;5059844;28;45316;-60
2023/04/29 05:48:54;;;;;;;;;27.25;25.25;;;;;14.91;54.00;101338.44;5041522;28;47204;-61
2023/04/29 05:51:20;;;;;;;;;18.00;16.25;;;;;14.87;54.59;101335.91;5041668;28;45954;-61
2023/04/29 05:53:45;;;;;;;;;18.75;17.25;;;;;14.89;54.66;101347.31;5059971;28;45330;-61
2023/04/29 05:56:10;;;;;;;;;20.75;19.75;;;;;14.87;54.42;101347.34;5062884;28;46412;-61
2023/04/29 05:58:36;;;;;;;;;17.00;17.00;;;;;14.85;54.40;101351.78;5063073;28;46339;-61
2023/04/29 06:01:02;;;;;;;;;18.75;18.00;;;;;14.85;54.65;101348.28;5063410;28;45265;-61
2023/04/29 06:03:27;;;;;;;;;46.00;35.50;;;;;14.82;54.12;101348.34;5045118;28;45191;-61
2023/04/29 06:05:52;;;;;;;;;32.75;28.25;;;;;14.81;54.41;101355.41;5061812;28;45920;-61
2023/04/29 06:08:19;;;;;;;;;24.25;21.50;;;;;14.82;54.70;101353.63;5062982;28;45423;-61
2023/04/29 06:10:45;;;;;;;;;20.75;17.25;;;;;14.80;54.56;101351.03;5063137;28;45292;-61
2023/04/29 06:13:10;;;;;;;;;17.50;16.50;;;;;14.81;54.12;101371.28;5063091;28;45221;-61
2023/04/29 06:15:36;;;;;;;;;22.75;17.50;;;;;14.81;54.10;101366.00;5063064;28;45210;-61
2023/04/29 06:18:01;;;;;;;;;21.25;20.00;;;;;14.82;54.92;101367.75;5063092;28;45429;-61
2023/04/29 06:20:26;;;;;;;;;20.00;18.00;;;;;14.81;54.59;101360.72;5062715;28;49413;-61
2023/04/29 06:22:54;;;;;;;;;18.25;15.00;;;;;14.72;54.25;101353.00;5062923;28;45592;-62
2023/04/29 06:25:20;;;;;;;;;25.25;22.25;;;;;14.73;54.92;101362.63;5062898;28;45470;-61
2023/04/29 06:27:45;;;;;;;;;21.50;18.75;;;;;14.77;54.53;101365.19;5044531;28;46027;-61
2023/04/29 06:30:11;;;;;;;;;20.50;19.50;;;;;14.78;54.72;101366.09;5062795;28;45301;-62
2023/04/29 06:32:40;;;;;;;;;23.25;20.00;;;;;14.77;54.56;101364.34;5061503;28;45444;-61
2023/04/29 06:35:08;;;;;;;;;22.25;19.75;;;;;14.76;54.65;101362.59;5062530;28;45515;-61
2023/04/29 06:37:34;;;;;;;;;18.75;18.50;;;;;14.80;55.07;101369.53;5044066;28;46718;-62
2023/04/29 06:40:00;;;;;;;;;28.75;27.00;;;;;14.78;54.71;101368.72;5062504;28;45280;-62
2023/04/29 06:42:29;;;;;;;;;23.75;22.25;;;;;14.82;54.38;101372.16;5044504;28;45347;-61
2023/04/29 06:44:54;;;;;;;;;20.00;17.75;;;;;14.82;54.64;101375.69;5044667;28;46468;-62
2023/04/29 06:47:20;;;;;;;;;19.00;17.50;;;;;14.82;54.53;101378.34;5062280;28;45276;-62
2023/04/29 06:49:46;;;;;;;;;21.00;15.50;;;;;14.82;55.12;101382.75;5044320;28;45246;-62
2023/04/29 06:52:12;;;;;;;;;17.00;16.50;;;;;14.85;54.94;101377.41;5044529;28;45327;-61
2023/04/29 06:54:38;;;;;;;;;22.50;19.75;;;;;14.78;54.65;101371.38;5062496;28;45515;-62
2023/04/29 06:57:03;;;;;;;;;18.75;18.25;;;;;14.84;54.78;101381.84;5060675;28;47179;-61
2023/04/29 06:59:28;;;;;;;;;17.75;17.00;;;;;14.87;55.07;101389.69;5062028;28;51293;-61
2023/04/29 07:01:54;;;;;;;;;19.75;18.50;;;;;14.82;55.32;101372.16;5060870;28;45393;-61
2023/04/29 07:04:19;;;;;;;;;21.75;20.50;;;;;14.89;54.70;101397.59;5062166;28;49703;-61
2023/04/29 07:06:45;;;;;;;;;22.50;17.00;;;;;14.88;54.84;101388.78;5060630;28;46055;-60
2023/04/29 07:09:12;;;;;;;;;20.25;17.00;;;;;14.87;54.86;101400.28;5060795;28;45344;-60
2023/04/29 07:11:38;;;;;;;;;19.75;19.00;;;;;14.90;55.31;101404.63;5062179;28;45174;-61
2023/04/29 07:14:03;;;;;;;;;22.25;18.50;;;;;14.87;55.15;101400.28;5062069;28;45457;-61
2023/04/29 07:16:29;;;;;;;;;17.25;16.50;;;;;14.91;55.33;101404.59;5060464;28;46881;-61
2023/04/29 07:18:54;;;;;;;;;25.00;21.50;;;;;14.91;55.33;101401.06;5062120;28;45225;-61
2023/04/29 07:21:19;;;;;;;;;24.50;20.25;;;;;14.90;55.08;101400.19;5061773;28;45233;-61
2023/04/29 07:23:45;;;;;;;;;26.25;23.75;;;;;14.93;55.33;101407.19;5043791;28;45241;-62
2023/04/29 07:26:15;;;;;;;;;23.50;20.00;;;;;14.92;55.22;101405.47;5043510;28;47244;-62
2023/04/29 07:28:41;;;;;;;;;22.50;21.50;;;;;14.91;55.14;101401.94;5043831;28;45342;-61
2023/04/29 07:31:07;;;;;;;;;28.00;23.00;;;;;14.92;54.95;101410.75;5061758;28;45245;-61
2023/04/29 07:33:34;;;;;;;;;26.75;19.50;;;;;14.97;55.46;101410.66;5061690;28;45228;-62
2023/04/29 07:35:59;;;;;;;;;24.00;20.50;;;;;14.95;55.50;101410.69;5061370;28;46396;-60
2023/04/29 07:38:25;;;;;;;;;25.50;22.00;;;;;14.97;54.93;101423.88;5061286;28;45237;-60
2023/04/29 07:40:50;;;;;;;;;33.25;27.50;;;;;14.97;55.18;101424.75;5061562;28;45222;-60
2023/04/29 07:43:15;;;;;;;;;25.50;24.75;;;;;14.95;55.28;101414.22;5061682;28;45225;-60
2023/04/29 07:45:41;;;;;;;;;32.50;28.50;;;;;14.99;55.52;101428.22;5061371;28;46876;-60
2023/04/29 07:48:06;;;;;;;;;26.25;25.50;;;;;14.99;55.55;101422.94;5061481;28;46391;-60
2023/04/29 07:50:35;;;;;;;;;37.25;29.00;;;;;14.98;55.29;101415.03;5061289;28;45403;-60
2023/04/29 07:53:01;;;;;;;;;38.50;29.25;;;;;14.99;55.18;101422.94;5043523;28;45309;-60
2023/04/29 07:55:28;;;;;;;;;32.50;26.25;;;;;15.00;55.39;101424.69;5061103;28;45365;-60
2023/04/29 07:57:54;;;;;;;;;25.75;25.75;;;;;15.04;55.63;101430.78;5043097;28;45423;-60
2023/04/29 08:00:20;;;;;;;;;32.25;29.25;;;;;15.04;55.24;101418.44;5060354;28;45507;-60
2023/04/29 08:02:46;;;;;;;;;40.50;30.75;;;;;15.04;55.61;101434.31;5061229;28;45556;-60
2023/04/29 08:05:11;;;;;;;;;35.25;28.50;;;;;15.07;55.66;101430.75;5042777;28;48132;-60
2023/04/29 08:07:36;;;;;;;;;23.00;17.75;;;;;15.06;55.47;101423.69;5043201;28;45597;-60
2023/04/29 08:10:02;;;;;;;;;31.25;24.75;;;;;15.07;55.22;101428.09;5061020;28;45399;-60
2023/04/29 08:12:27;;;;;;;;;27.75;26.50;;;;;15.08;55.64;101430.69;5061341;28;45337;-60
2023/04/29 08:14:52;;;;;;;;;31.25;24.75;;;;;15.08;55.52;101436.00;5042934;28;48048;-60
2023/04/29 08:17:17;;;;;;;;;29.50;25.50;;;;;15.08;55.21;101429.81;5060609;28;46129;-60
2023/04/29 08:19:43;;;;;;;;;35.50;30.50;;;;;15.08;55.57;101435.09;5060745;28;45324;-60
2023/04/29 08:22:10;;;;;;;;;27.25;25.25;;;;;15.08;55.35;101437.75;5061021;28;45303;-60
2023/04/29 08:24:35;;;;;;;;;31.50;28.75;;;;;15.10;55.22;101438.59;5026158;28;48284;-60
2023/04/29 08:27:00;;;;;;;;;31.25;28.50;;;;;15.10;55.69;101435.94;5060845;28;45335;-60
2023/04/29 08:29:26;;;;;;;;;31.50;25.50;;;;;15.13;55.59;101443.81;5061059;28;45336;-60
2023/04/29 08:31:51;;;;;;;;;32.25;27.50;;;;;15.13;55.57;101438.50;5060921;28;45312;-60
2023/04/29 08:34:16;;;;;;;;;31.25;28.25;;;;;15.17;55.39;101441.97;5042668;28;45331;-59
2023/04/29 08:36:42;;;;;;;;;36.00;28.75;;;;;15.17;55.76;101442.84;5060458;28;45171;-61
2023/04/29 08:39:07;;;;;;;;;30.50;26.25;;;;;15.19;55.66;101443.66;5060787;28;45206;-59
2023/04/29 08:41:33;;;;;;;;;28.25;25.75;;;;;15.23;55.68;101441.84;5060696;28;45305;-60
2023/04/29 08:43:59;;;;;;;;;32.00;29.25;;;;;15.24;55.58;101439.19;5042526;28;47343;-60
2023/04/29 08:46:25;;;;;;;;;26.50;21.75;;;;;15.23;55.40;101437.44;5060566;28;45443;-60
2023/04/29 08:48:52;;;;;;;;;33.75;30.25;;;;;15.30;55.95;101453.19;5060536;28;45240;-60
2023/04/29 08:51:17;;;;;;;;;38.75;31.50;;;;;15.32;55.23;101446.94;5058957;28;45613;-60
2023/04/29 08:53:42;;;;;;;;;36.50;30.75;;;;;15.31;55.62;101441.66;5060318;28;45408;-60
2023/04/29 08:56:14;;;;;;;;;40.75;31.25;;;;;15.37;55.59;101446.81;5060337;28;45475;-60
2023/04/29 08:58:41;;;;;;;;;33.50;31.25;;;;;15.40;55.13;101446.75;5060437;28;45168;-60
2023/04/29 09:01:08;;;;;;;;;32.00;29.00;;;;;15.43;55.34;101446.66;5050290;28;45549;-60
2023/04/29 09:03:43;;;;;;;;;40.00;34.50;;;;;15.43;55.48;101444.91;5041096;28;47295;-60
2023/04/29 09:06:10;;;;;;;;;36.25;32.50;;;;;15.46;55.45;101443.06;5059171;28;45464;-60
2023/04/29 09:08:36;;;;;;;;;31.75;28.00;;;;;15.52;55.52;101454.41;5059898;28;45382;-61
2023/04/29 09:11:03;;;;;;;;;31.50;27.25;;;;;15.53;55.46;101453.50;5060106;28;45522;-60
2023/04/29 09:13:30;;;;;;;;;34.50;28.50;;;;;15.55;55.23;101454.34;5060159;28;45273;-60
2023/04/29 09:15:56;;;;;;;;;42.50;34.00;;;;;15.60;55.34;101456.88;5060033;28;45313;-61
2023/04/29 09:18:40;;;;;;;;;29.75;27.25;;;;;15.64;55.38;101463.84;5060070;28;45226;-61
2023/04/29 09:21:16;;;;;;;;;32.50;29.75;;;;;15.64;55.49;101460.34;5059870;28;45175;-60
2023/04/29 09:23:42;;;;;;;;;40.75;34.00;;;;;15.70;55.25;101461.06;5059745;28;45295;-61
2023/04/29 09:26:08;;;;;;;;;39.50;32.00;;;;;15.71;55.57;101456.59;5059243;28;45363;-59
2023/04/29 09:28:33;;;;;;;;;36.50;33.50;;;;;15.75;55.40;101466.25;5058792;28;45358;-61
2023/04/29 09:31:05;;;;;;;;;42.00;35.00;;;;;15.80;55.31;101463.47;5041007;28;45437;-61
2023/04/29 09:33:30;;;;;;;;;42.25;35.00;;;;;15.80;55.24;101460.81;5040089;28;46247;-59
2023/04/29 09:35:55;;;;;;;;;39.50;33.75;;;;;15.85;55.40;101469.59;5059736;28;45229;-59
2023/04/29 09:38:21;;;;;;;;;39.25;33.25;;;;;15.84;55.18;101471.34;5059823;28;45491;-59
2023/04/29 09:40:46;;;;;;;;;44.00;35.00;;;;;15.90;55.25;101468.53;5059667;28;45391;-60
2023/04/29 09:43:17;;;;;;;;;40.00;33.00;;;;;15.91;55.22;101472.94;5041651;28;50868;-61
2023/04/29 09:45:44;;;;;;;;;44.25;36.75;;;;;15.95;55.18;101470.19;5059136;28;45230;-61
2023/04/29 09:48:11;;;;;;;;;40.25;31.25;;;;;15.99;55.23;101477.19;5058568;28;45346;-62
2023/04/29 09:50:38;;;;;;;;;39.75;33.25;;;;;16.02;55.05;101471.78;5059505;28;45558;-62
2023/04/29 09:53:09;;;;;;;;;41.00;34.00;;;;;16.05;54.96;101477.91;5024873;28;48490;-61
2023/04/29 09:55:59;;;;;;;;;43.25;37.00;;;;;16.08;55.53;101475.16;5059295;28;45551;-61
2023/04/29 09:58:35;;;;;;;;;39.50;35.00;;;;;16.10;55.09;101472.47;5050200;28;45460;-60
2023/04/29 10:01:01;;;;;;;;;49.75;38.25;;;;;16.12;55.57;101475.09;5058894;28;45470;-60
2023/04/29 10:03:32;;;;;;;;;43.50;35.75;;;;;16.13;55.18;101475.03;5059104;28;45302;-59
2023/04/29 10:05:59;;;;;;;;;43.75;35.75;;;;;16.18;55.30;101480.22;5059521;28;45316;-61
2023/04/29 10:08:26;;;;;;;;;47.25;37.50;;;;;16.19;55.18;101482.84;5059336;28;45342;-61
2023/04/29 10:10:56;;;;;;;;;43.50;35.75;;;;;16.21;55.08;101480.13;5059591;28;45260;-61
2023/04/29 10:13:24;;;;;;;;;38.00;32.25;;;;;16.23;55.07;101478.34;5059227;28;45270;-61
2023/04/29 10:15:59;;;;;;;;;37.75;32.25;;;;;16.25;55.24;101480.03;5059515;28;45395;-61
2023/04/29 10:18:51;;;;;;;;;42.50;33.50;;;;;16.26;55.30;101475.59;5059409;28;45309;-61
2023/04/29 10:21:21;;;;;;;;;44.75;35.25;;;;;16.28;55.21;101472.91;5059091;28;45426;-61
2023/04/29 10:23:47;;;;;;;;;44.50;35.75;;;;;16.28;55.13;101470.25;5056413;28;46601;-61
2023/04/29 10:26:15;;;;;;;;;44.75;38.50;;;;;16.30;55.01;101468.41;5041041;28;45360;-61
2023/04/29 10:28:44;;;;;;;;;44.25;35.00;;;;;16.30;55.04;101469.31;5059270;28;45177;-60
2023/04/29 10:31:12;;;;;;;;;35.75;32.25;;;;;16.35;55.13;101475.38;5058527;28;45336;-61
2023/04/29 10:33:43;;;;;;;;;39.00;32.50;;;;;16.37;55.24;101467.34;5059102;28;46048;-61
2023/04/29 10:36:11;;;;;;;;;43.50;35.50;;;;;16.42;55.21;101468.09;5058603;28;45456;-62
2023/04/29 10:38:46;;;;;;;;;45.50;36.25;;;;;16.45;54.86;101473.31;5058863;28;45241;-59
2023/04/29 10:41:23;;;;;;;;;37.25;33.50;;;;;16.47;54.91;101476.78;5060676;28;45359;-61
2023/04/29 10:43:49;;;;;;;;;40.50;35.75;;;;;16.47;55.06;101474.16;5062397;28;45444;-61
2023/04/29 10:46:20;;;;;;;;;33.50;31.25;;;;;16.54;54.93;101483.69;5062588;28;45309;-61
2023/04/29 10:48:47;;;;;;;;;36.50;33.25;;;;;16.57;54.87;101482.72;5062465;28;45379;-61
2023/04/29 10:51:26;;;;;;;;;48.00;39.00;;;;;16.59;54.84;101480.91;5062484;28;45277;-61
2023/04/29 10:53:59;;;;;;;;;43.25;36.75;;;;;16.62;54.75;101478.16;5062247;28;46753;-61
2023/04/29 10:56:36;;;;;;;;;45.50;37.50;;;;;16.63;54.73;101476.38;5060563;28;45388;-61
2023/04/29 10:59:02;;;;;;;;;42.00;36.25;;;;;16.67;54.98;101484.22;5045258;28;45241;-61
2023/04/29 11:01:42;;;;;;;;;43.00;35.00;;;;;16.70;54.67;101478.84;5062080;28;45545;-59
2023/04/29 11:04:09;;;;;;;;;39.75;34.50;;;;;16.70;54.71;101470.88;5060924;28;48416;-61
2023/04/29 11:06:41;;;;;;;;;46.50;37.00;;;;;16.78;54.93;101486.56;5043769;28;45347;-60
2023/04/29 11:09:21;;;;;;;;;47.25;34.75;;;;;16.78;54.81;101481.25;5062281;28;45265;-61
2023/04/29 11:11:57;;;;;;;;;43.00;36.00;;;;;16.82;54.48;101484.72;5061930;28;45428;-59
2023/04/29 11:14:35;;;;;;;;;44.50;35.00;;;;;16.85;54.48;101482.81;5061449;28;45431;-60